sensor_id;sensor_type;location;lat;lon;timestamp;pressure;altitude;pressure_sealevel;temperature;humidity
12987;BME280;58897;51.960;5.582;2023-04-07T00:00:02;101188.34;;;8.12;100.00
12987;BME280;58897;51.960;5.582;2023-04-07T00:02:30;101196.25;;;8.14;100.00
12987;BME280;58897;51.960;5.582;2023-04-07T00:04:58;101197.81;;;8.16;100.00
12987;BME280;58897;51.960;5.582;2023-04-07T00:07:25;101194.59;;;8.22;100.00
12987;BME280;58897;51.960;5.582;2023-04-07T00:09:52;101195.59;;;8.21;100.00
12987;BME280;58897;51.960;5.582;2023-04-07T00:12:19;101192.59;;;8.15;100.00
12987;BME280;58897;51.960;5.582;2023-04-07T00:14:46;101200.41;;;8.18;100.00
12987;BME280;58897;51.960;5.582;2023-04-07T00:17:12;101190.06;;;8.23;100.00
12987;BME280;58897;51.960;5.582;2023-04-07T00:19:38;101197.72;;;8.18;100.00
12987;BME280;58897;51.960;5.582;2023-04-07T00:22:05;101198.56;;;8.18;100.00
12987;BME280;58897;51.960;5.582;2023-04-07T00:24:31;101201.25;;;8.18;100.00
12987;BME280;58897;51.960;5.582;2023-04-07T00:27:00;101204.50;;;8.22;100.00
12987;BME280;58897;51.960;5.582;2023-04-07T00:29:29;101201.66;;;8.14;100.00
12987;BME280;58897;51.960;5.582;2023-04-07T00:31:56;101201.81;;;8.22;100.00
12987;BME280;58897;51.960;5.582;2023-04-07T00:34:23;101203.53;;;8.23;100.00
12987;BME280;58897;51.960;5.582;2023-04-07T00:36:49;101198.84;;;8.15;100.00
12987;BME280;58897;51.960;5.582;2023-04-07T00:39:19;101204.06;;;8.17;100.00
12987;BME280;58897;51.960;5.582;2023-04-07T00:41:46;101201.81;;;8.22;100.00
12987;BME280;58897;51.960;5.582;2023-04-07T00:44:13;101201.97;;;8.20;100.00
12987;BME280;58897;51.960;5.582;2023-04-07T00:46:41;101195.13;;;8.16;100.00
12987;BME280;58897;51.960;5.582;2023-04-07T00:49:08;101193.19;;;8.18;100.00
12987;BME280;58897;51.960;5.582;2023-04-07T00:51:36;101191.31;;;8.19;100.00
12987;BME280;58897;51.960;5.582;2023-04-07T00:54:03;101187.78;;;8.18;100.00
12987;BME280;58897;51.960;5.582;2023-04-07T00:56:31;101191.47;;;8.17;100.00
12987;BME280;58897;51.960;5.582;2023-04-07T00:58:57;101184.38;;;8.16;100.00
12987;BME280;58897;51.960;5.582;2023-04-07T01:01:29;101186.78;;;8.09;100.00
12987;BME280;58897;51.960;5.582;2023-04-07T01:04:08;101190.75;;;8.15;100.00
12987;BME280;58897;51.960;5.582;2023-04-07T01:06:39;101188.94;;;8.16;100.00
12987;BME280;58897;51.960;5.582;2023-04-07T01:09:53;101191.31;;;8.19;100.00
12987;BME280;58897;51.960;5.582;2023-04-07T01:15:11;101190.34;;;8.10;100.00
12987;BME280;58897;51.960;5.582;2023-04-07T01:17:42;101196.00;;;8.17;100.00
12987;BME280;58897;51.960;5.582;2023-04-07T01:20:16;101193.72;;;8.02;100.00
12987;BME280;58897;51.960;5.582;2023-04-07T01:22:46;101191.03;;;8.12;100.00
12987;BME280;58897;51.960;5.582;2023-04-07T01:30:31;101192.16;;;8.09;100.00
12987;BME280;58897;51.960;5.582;2023-04-07T01:32:59;101196.69;;;8.09;100.00
12987;BME280;58897;51.960;5.582;2023-04-07T01:35:31;101191.03;;;8.02;100.00
12987;BME280;58897;51.960;5.582;2023-04-07T01:37:58;101197.97;;;8.05;100.00
12987;BME280;58897;51.960;5.582;2023-04-07T01:40:26;101194.00;;;8.09;100.00
12987;BME280;58897;51.960;5.582;2023-04-07T01:42:55;101199.53;;;8.07;100.00
12987;BME280;58897;51.960;5.582;2023-04-07T01:45:23;101207.88;;;8.04;100.00
12987;BME280;58897;51.960;5.582;2023-04-07T01:47:52;101204.75;;;8.09;100.00
12987;BME280;58897;51.960;5.582;2023-04-07T01:50:20;101215.78;;;8.06;100.00
12987;BME280;58897;51.960;5.582;2023-04-07T01:52:47;101215.38;;;8.01;100.00
12987;BME280;58897;51.960;5.582;2023-04-07T01:55:15;101213.09;;;8.06;100.00
12987;BME280;58897;51.960;5.582;2023-04-07T01:57:42;101208.47;;;8.08;100.00
12987;BME280;58897;51.960;5.582;2023-04-07T02:00:09;101206.47;;;8.10;100.00
12987;BME280;58897;51.960;5.582;2023-04-07T02:02:39;101210.03;;;8.11;100.00
12987;BME280;58897;51.960;5.582;2023-04-07T02:05:12;101196.69;;;8.09;100.00
12987;BME280;58897;51.960;5.582;2023-04-07T02:10:12;101209.72;;;8.04;100.00
12987;BME280;58897;51.960;5.582;2023-04-07T02:12:41;101208.84;;;8.03;100.00
12987;BME280;58897;51.960;5.582;2023-04-07T02:15:09;101212.56;;;8.02;100.00
12987;BME280;58897;51.960;5.582;2023-04-07T02:17:40;101211.97;;;7.99;100.00
12987;BME280;58897;51.960;5.582;2023-04-07T02:20:08;101214.22;;;7.94;100.00
12987;BME280;58897;51.960;5.582;2023-04-07T02:22:38;101216.38;;;8.00;100.00
12987;BME280;58897;51.960;5.582;2023-04-07T02:25:29;101216.22;;;8.01;100.00
12987;BME280;58897;51.960;5.582;2023-04-07T02:27:57;101214.66;;;7.99;100.00
12987;BME280;58897;51.960;5.582;2023-04-07T02:30:25;101213.00;;;8.07;100.00
12987;BME280;58897;51.960;5.582;2023-04-07T02:32:52;101216.94;;;8.03;100.00
12987;BME280;58897;51.960;5.582;2023-04-07T02:35:19;101210.13;;;7.99;100.00
12987;BME280;58897;51.960;5.582;2023-04-07T02:37:46;101211.97;;;7.99;100.00
12987;BME280;58897;51.960;5.582;2023-04-07T02:40:13;101213.38;;;8.03;100.00
12987;BME280;58897;51.960;5.582;2023-04-07T02:42:40;101211.97;;;8.08;100.00
12987;BME280;58897;51.960;5.582;2023-04-07T02:45:08;101217.66;;;8.05;100.00
12987;BME280;58897;51.960;5.582;2023-04-07T02:47:36;101211.53;;;8.03;100.00
12987;BME280;58897;51.960;5.582;2023-04-07T02:50:06;101215.78;;;7.96;100.00
12987;BME280;58897;51.960;5.582;2023-04-07T02:52:33;101214.66;;;7.99;100.00
12987;BME280;58897;51.960;5.582;2023-04-07T02:54:59;101208.16;;;8.01;100.00
12987;BME280;58897;51.960;5.582;2023-04-07T02:57:26;101216.94;;;8.03;100.00
12987;BME280;58897;51.960;5.582;2023-04-07T02:59:53;101218.38;;;8.07;100.00
12987;BME280;58897;51.960;5.582;2023-04-07T03:02:21;101213.69;;;8.09;100.00
12987;BME280;58897;51.960;5.582;2023-04-07T03:04:50;101213.69;;;8.09;100.00
12987;BME280;58897;51.960;5.582;2023-04-07T03:07:18;101218.47;;;8.06;100.00
12987;BME280;58897;51.960;5.582;2023-04-07T03:09:44;101217.94;;;8.02;100.00
12987;BME280;58897;51.960;5.582;2023-04-07T03:12:11;101214.22;;;7.94;100.00
12987;BME280;58897;51.960;5.582;2023-04-07T03:14:37;101214.50;;;8.00;100.00
12987;BME280;58897;51.960;5.582;2023-04-07T03:17:04;101218.06;;;8.01;100.00
12987;BME280;58897;51.960;5.582;2023-04-07T03:19:31;101228.38;;;7.96;100.00
12987;BME280;58897;51.960;5.582;2023-04-07T03:21:57;101224.38;;;7.90;100.00
12987;BME280;58897;51.960;5.582;2023-04-07T03:24:24;101219.75;;;7.92;100.00
12987;BME280;58897;51.960;5.582;2023-04-07T03:26:51;101221.00;;;7.98;100.00
12987;BME280;58897;51.960;5.582;2023-04-07T03:29:18;101217.34;;;7.99;100.00
12987;BME280;58897;51.960;5.582;2023-04-07T03:31:44;101221.31;;;7.95;100.00
12987;BME280;58897;51.960;5.582;2023-04-07T03:34:12;101216.63;;;7.97;100.00
12987;BME280;58897;51.960;5.582;2023-04-07T03:36:38;101226.38;;;7.98;100.00
12987;BME280;58897;51.960;5.582;2023-04-07T03:39:04;101221.59;;;8.01;100.00
12987;BME280;58897;51.960;5.582;2023-04-07T03:41:31;101223.44;;;8.01;100.00
12987;BME280;58897;51.960;5.582;2023-04-07T03:43:58;101226.28;;;7.99;100.00
12987;BME280;58897;51.960;5.582;2023-04-07T03:46:25;101225.56;;;7.97;100.00
12987;BME280;58897;51.960;5.582;2023-04-07T03:48:52;101220.03;;;7.99;100.00
12987;BME280;58897;51.960;5.582;2023-04-07T03:51:19;101215.38;;;8.01;100.00
12987;BME280;58897;51.960;5.582;2023-04-07T03:53:49;101225.59;;;8.07;100.00
12987;BME280;58897;51.960;5.582;2023-04-07T03:56:17;101220.75;;;8.01;100.00
12987;BME280;58897;51.960;5.582;2023-04-07T03:58:43;101222.72;;;7.99;100.00
12987;BME280;58897;51.960;5.582;2023-04-07T04:01:11;101225.69;;;7.96;100.00
12987;BME280;58897;51.960;5.582;2023-04-07T04:03:38;101237.31;;;7.96;100.00
12987;BME280;58897;51.960;5.582;2023-04-07T04:06:05;101225.84;;;7.94;100.00
12987;BME280;58897;51.960;5.582;2023-04-07T04:08:32;101219.31;;;7.97;100.00
12987;BME280;58897;51.960;5.582;2023-04-07T04:10:58;101230.78;;;7.99;100.00
12987;BME280;58897;51.960;5.582;2023-04-07T04:13:25;101230.09;;;7.97;100.00
12987;BME280;58897;51.960;5.582;2023-04-07T04:15:52;101238.28;;;7.95;100.00
12987;BME280;58897;51.960;5.582;2023-04-07T04:18:18;101231.66;;;7.99;100.00
12987;BME280;58897;51.960;5.582;2023-04-07T04:20:45;101239.03;;;7.97;100.00
12987;BME280;58897;51.960;5.582;2023-04-07T04:23:14;101226.81;;;8.03;100.00
12987;BME280;58897;51.960;5.582;2023-04-07T04:25:41;101236.44;;;7.96;100.00
12987;BME280;58897;51.960;5.582;2023-04-07T04:28:08;101247.09;;;7.97;100.00
12987;BME280;58897;51.960;5.582;2023-04-07T04:30:34;101254.59;;;8.03;100.00
12987;BME280;58897;51.960;5.582;2023-04-07T04:33:02;101248.94;;;7.97;100.00
12987;BME280;58897;51.960;5.582;2023-04-07T04:35:28;101248.78;;;7.98;100.00
12987;BME280;58897;51.960;5.582;2023-04-07T04:37:55;101262.47;;;7.86;100.00
12987;BME280;58897;51.960;5.582;2023-04-07T04:40:22;101259.94;;;7.94;100.00
12987;BME280;58897;51.960;5.582;2023-04-07T04:42:48;101263.50;;;7.94;100.00
12987;BME280;58897;51.960;5.582;2023-04-07T04:45:15;101260.66;;;7.96;100.00
12987;BME280;58897;51.960;5.582;2023-04-07T04:47:41;101262.63;;;7.94;100.00
12987;BME280;58897;51.960;5.582;2023-04-07T04:50:09;101268.28;;;7.91;100.00
12987;BME280;58897;51.960;5.582;2023-04-07T04:52:36;101264.91;;;7.98;100.00
12987;BME280;58897;51.960;5.582;2023-04-07T04:55:03;101265.47;;;7.92;100.00
12987;BME280;58897;51.960;5.582;2023-04-07T04:57:30;101265.75;;;7.89;100.00
12987;BME280;58897;51.960;5.582;2023-04-07T04:59:57;101272.44;;;7.95;100.00
12987;BME280;58897;51.960;5.582;2023-04-07T05:02:25;101275.13;;;7.95;100.00
12987;BME280;58897;51.960;5.582;2023-04-07T05:04:52;101273.41;;;7.94;100.00
12987;BME280;58897;51.960;5.582;2023-04-07T05:07:18;101271.69;;;7.93;100.00
12987;BME280;58897;51.960;5.582;2023-04-07T05:09:45;101272.53;;;7.93;100.00
12987;BME280;58897;51.960;5.582;2023-04-07T05:12:11;101276.69;;;7.97;100.00
12987;BME280;58897;51.960;5.582;2023-04-07T05:14:38;101280.34;;;7.96;100.00
12987;BME280;58897;51.960;5.582;2023-04-07T05:17:04;101276.53;;;7.99;100.00
12987;BME280;58897;51.960;5.582;2023-04-07T05:19:31;101281.91;;;7.99;100.00
12987;BME280;58897;51.960;5.582;2023-04-07T05:21:57;101275.69;;;7.98;100.00
12987;BME280;58897;51.960;5.582;2023-04-07T05:24:28;101273.66;;;7.91;100.00
12987;BME280;58897;51.960;5.582;2023-04-07T05:26:54;101272.53;;;7.93;100.00
12987;BME280;58897;51.960;5.582;2023-04-07T05:29:22;101275.94;;;7.95;100.00
12987;BME280;58897;51.960;5.582;2023-04-07T05:31:49;101280.16;;;7.88;100.00
12987;BME280;58897;51.960;5.582;2023-04-07T05:34:16;101279.75;;;7.93;100.00
12987;BME280;58897;51.960;5.582;2023-04-07T05:36:42;101284.31;;;7.92;100.00
12987;BME280;58897;51.960;5.582;2023-04-07T05:39:09;101285.28;;;7.91;100.00
12987;BME280;58897;51.960;5.582;2023-04-07T05:41:35;101284.31;;;7.92;100.00
12987;BME280;58897;51.960;5.582;2023-04-07T05:44:02;101289.53;;;7.94;100.00
12987;BME280;58897;51.960;5.582;2023-04-07T05:46:29;101294.50;;;7.98;100.00
12987;BME280;58897;51.960;5.582;2023-04-07T05:48:55;101289.97;;;7.99;100.00
12987;BME280;58897;51.960;5.582;2023-04-07T05:51:24;101293.25;;;8.02;100.00
12987;BME280;58897;51.960;5.582;2023-04-07T05:53:52;101293.81;;;8.06;100.00
12987;BME280;58897;51.960;5.582;2023-04-07T05:56:18;101293.53;;;7.99;100.00
12987;BME280;58897;51.960;5.582;2023-04-07T05:58:45;101290.31;;;8.05;100.00
12987;BME280;58897;51.960;5.582;2023-04-07T06:01:11;101293.13;;;8.04;100.00
12987;BME280;58897;51.960;5.582;2023-04-07T06:03:38;101298.22;;;8.07;100.00
12987;BME280;58897;51.960;5.582;2023-04-07T06:06:06;101293.28;;;8.12;100.00
12987;BME280;58897;51.960;5.582;2023-04-07T06:08:33;101309.44;;;8.12;100.00
12987;BME280;58897;51.960;5.582;2023-04-07T06:10:59;101306.31;;;8.17;100.00
12987;BME280;58897;51.960;5.582;2023-04-07T06:13:27;101305.78;;;8.23;100.00
12987;BME280;58897;51.960;5.582;2023-04-07T06:15:54;101311.31;;;8.21;100.00
12987;BME280;58897;51.960;5.582;2023-04-07T06:18:22;101312.75;;;8.25;100.00
12987;BME280;58897;51.960;5.582;2023-04-07T06:20:48;101311.75;;;8.26;100.00
12987;BME280;58897;51.960;5.582;2023-04-07T06:23:14;101314.50;;;8.36;100.00
12987;BME280;58897;51.960;5.582;2023-04-07T06:25:41;101310.69;;;8.38;100.00
12987;BME280;58897;51.960;5.582;2023-04-07T06:28:08;101311.41;;;8.50;100.00
12987;BME280;58897;51.960;5.582;2023-04-07T06:30:35;101316.41;;;8.54;100.00
12987;BME280;58897;51.960;5.582;2023-04-07T06:33:02;101312.00;;;8.63;100.00
12987;BME280;58897;51.960;5.582;2023-04-07T06:35:28;101309.59;;;8.79;100.00
12987;BME280;58897;51.960;5.582;2023-04-07T06:37:55;101315.72;;;8.81;100.00
12987;BME280;58897;51.960;5.582;2023-04-07T06:40:22;101312.72;;;8.75;100.00
12987;BME280;58897;51.960;5.582;2023-04-07T06:42:48;101308.91;;;8.87;100.00
12987;BME280;58897;51.960;5.582;2023-04-07T06:45:15;101322.41;;;8.96;100.00
12987;BME280;58897;51.960;5.582;2023-04-07T06:47:41;101324.94;;;8.98;100.00
12987;BME280;58897;51.960;5.582;2023-04-07T06:50:08;101325.94;;;8.97;100.00
12987;BME280;58897;51.960;5.582;2023-04-07T06:52:34;101319.69;;;9.06;100.00
12987;BME280;58897;51.960;5.582;2023-04-07T06:55:01;101317.16;;;9.04;100.00
12987;BME280;58897;51.960;5.582;2023-04-07T06:57:28;101322.25;;;8.98;100.00
12987;BME280;58897;51.960;5.582;2023-04-07T06:59:54;101332.59;;;9.02;100.00
12987;BME280;58897;51.960;5.582;2023-04-07T07:02:21;101339.41;;;9.06;100.00
12987;BME280;58897;51.960;5.582;2023-04-07T07:04:48;101341.25;;;9.06;100.00
12987;BME280;58897;51.960;5.582;2023-04-07T07:07:14;101340.53;;;8.94;100.00
12987;BME280;58897;51.960;5.582;2023-04-07T07:09:41;101339.28;;;8.98;100.00
12987;BME280;58897;51.960;5.582;2023-04-07T07:12:07;101344.81;;;8.97;100.00
12987;BME280;58897;51.960;5.582;2023-04-07T07:14:34;101348.66;;;9.04;100.00
12987;BME280;58897;51.960;5.582;2023-04-07T07:17:00;101350.06;;;8.98;100.00
12987;BME280;58897;51.960;5.582;2023-04-07T07:19:27;101344.81;;;8.97;100.00
12987;BME280;58897;51.960;5.582;2023-04-07T07:21:53;101343.66;;;8.90;100.00
12987;BME280;58897;51.960;5.582;2023-04-07T07:24:20;101355.72;;;9.05;100.00
12987;BME280;58897;51.960;5.582;2023-04-07T07:26:47;101356.13;;;9.10;100.00
12987;BME280;58897;51.960;5.582;2023-04-07T07:29:14;101344.09;;;9.04;100.00
12987;BME280;58897;51.960;5.582;2023-04-07T07:31:40;101350.63;;;9.11;100.00
12987;BME280;58897;51.960;5.582;2023-04-07T07:34:07;101346.66;;;9.25;100.00
12987;BME280;58897;51.960;5.582;2023-04-07T07:36:34;101351.78;;;9.28;100.00
12987;BME280;58897;51.960;5.582;2023-04-07T07:39:02;101352.88;;;9.45;100.00
12987;BME280;58897;51.960;5.582;2023-04-07T07:41:31;101356.44;;;9.36;100.00
12987;BME280;58897;51.960;5.582;2023-04-07T07:43:57;101354.59;;;9.46;100.00
12987;BME280;58897;51.960;5.582;2023-04-07T07:46:24;101357.16;;;9.38;100.00
12987;BME280;58897;51.960;5.582;2023-04-07T07:48:52;101358.84;;;9.39;100.00
12987;BME280;58897;51.960;5.582;2023-04-07T07:51:18;101363.97;;;9.32;100.00
12987;BME280;58897;51.960;5.582;2023-04-07T07:53:45;101366.50;;;9.33;100.00
12987;BME280;58897;51.960;5.582;2023-04-07T07:56:12;101374.03;;;9.20;100.00
12987;BME280;58897;51.960;5.582;2023-04-07T07:58:39;101375.75;;;9.41;100.00
12987;BME280;58897;51.960;5.582;2023-04-07T08:01:05;101375.03;;;9.29;100.00
12987;BME280;58897;51.960;5.582;2023-04-07T08:03:32;101379.72;;;9.46;100.00
12987;BME280;58897;51.960;5.582;2023-04-07T08:05:59;101375.16;;;9.47;100.00
12987;BME280;58897;51.960;5.582;2023-04-07T08:08:26;101381.81;;;9.52;100.00
12987;BME280;58897;51.960;5.582;2023-04-07T08:10:57;101379.84;;;9.45;100.00
12987;BME280;58897;51.960;5.582;2023-04-07T08:13:26;101387.81;;;9.46;100.00
12987;BME280;58897;51.960;5.582;2023-04-07T08:15:56;101384.53;;;9.62;100.00
12987;BME280;58897;51.960;5.582;2023-04-07T08:18:24;101386.09;;;9.64;100.00
12987;BME280;58897;51.960;5.582;2023-04-07T08:20:51;101391.59;;;9.63;100.00
12987;BME280;58897;51.960;5.582;2023-04-07T08:23:18;101385.94;;;9.47;100.00
12987;BME280;58897;51.960;5.582;2023-04-07T08:25:44;101393.31;;;9.64;100.00
12987;BME280;58897;51.960;5.582;2023-04-07T08:28:11;101396.16;;;9.72;100.00
12987;BME280;58897;51.960;5.582;2023-04-07T08:30:37;101391.47;;;9.64;100.00
12987;BME280;58897;51.960;5.582;2023-04-07T08:33:05;101395.44;;;9.60;100.00
12987;BME280;58897;51.960;5.582;2023-04-07T08:35:32;101394.88;;;9.66;100.00
12987;BME280;58897;51.960;5.582;2023-04-07T08:37:58;101393.75;;;9.59;100.00
12987;BME280;58897;51.960;5.582;2023-04-07T08:40:25;101394.75;;;9.58;100.00
12987;BME280;58897;51.960;5.582;2023-04-07T08:42:52;101393.31;;;9.54;100.00
12987;BME280;58897;51.960;5.582;2023-04-07T08:45:19;101398.28;;;9.68;100.00
12987;BME280;58897;51.960;5.582;2023-04-07T08:47:48;101395.28;;;9.71;100.00
12987;BME280;58897;51.960;5.582;2023-04-07T08:50:17;101400.28;;;9.66;100.00
12987;BME280;58897;51.960;5.582;2023-04-07T08:52:55;101409.34;;;9.84;100.00
12987;BME280;58897;51.960;5.582;2023-04-07T08:55:22;101411.31;;;9.92;100.00
12987;BME280;58897;51.960;5.582;2023-04-07T08:57:50;101407.69;;;10.20;100.00
12987;BME280;58897;51.960;5.582;2023-04-07T09:00:18;101409.84;;;10.17;100.00
12987;BME280;58897;51.960;5.582;2023-04-07T09:02:46;101417.22;;;10.24;100.00
12987;BME280;58897;51.960;5.582;2023-04-07T09:05:14;101418.44;;;10.39;100.00
12987;BME280;58897;51.960;5.582;2023-04-07T09:07:41;101409.53;;;10.29;100.00
12987;BME280;58897;51.960;5.582;2023-04-07T09:10:10;101407.59;;;10.03;100.00
12987;BME280;58897;51.960;5.582;2023-04-07T09:12:37;101415.56;;;9.94;100.00
12987;BME280;58897;51.960;5.582;2023-04-07T09:15:06;101416.66;;;10.02;100.00
12987;BME280;58897;51.960;5.582;2023-04-07T09:17:33;101414.41;;;9.97;100.00
12987;BME280;58897;51.960;5.582;2023-04-07T09:20:00;101413.38;;;10.17;100.00
12987;BME280;58897;51.960;5.582;2023-04-07T09:22:53;101420.63;;;10.17;100.00
12987;BME280;58897;51.960;5.582;2023-04-07T09:25:23;101417.06;;;10.07;100.00
12987;BME280;58897;51.960;5.582;2023-04-07T09:28:02;101420.50;;;9.99;100.00
12987;BME280;58897;51.960;5.582;2023-04-07T09:30:32;101424.91;;;10.00;100.00
12987;BME280;58897;51.960;5.582;2023-04-07T09:33:00;101418.13;;;9.86;100.00
12987;BME280;58897;51.960;5.582;2023-04-07T09:35:27;101422.84;;;9.75;100.00
12987;BME280;58897;51.960;5.582;2023-04-07T09:38:06;101429.94;;;9.66;100.00
12987;BME280;58897;51.960;5.582;2023-04-07T09:40:34;101427.53;;;9.63;100.00
12987;BME280;58897;51.960;5.582;2023-04-07T09:43:02;101427.41;;;9.46;100.00
12987;BME280;58897;51.960;5.582;2023-04-07T09:45:30;101436.34;;;9.56;100.00
12987;BME280;58897;51.960;5.582;2023-04-07T09:48:29;101437.88;;;9.39;100.00
12987;BME280;58897;51.960;5.582;2023-04-07T09:51:05;101433.91;;;9.33;100.00
12987;BME280;58897;51.960;5.582;2023-04-07T09:56:09;101438.31;;;9.44;100.00
12987;BME280;58897;51.960;5.582;2023-04-07T09:58:37;101442.44;;;9.48;100.00
12987;BME280;58897;51.960;5.582;2023-04-07T10:01:06;101449.13;;;9.54;100.00
12987;BME280;58897;51.960;5.582;2023-04-07T10:03:34;101438.88;;;9.57;100.00
12987;BME280;58897;51.960;5.582;2023-04-07T10:06:02;101448.38;;;9.80;100.00
12987;BME280;58897;51.960;5.582;2023-04-07T10:08:34;101438.88;;;9.76;100.00
12987;BME280;58897;51.960;5.582;2023-04-07T10:11:04;101441.00;;;9.63;100.00
12987;BME280;58897;51.960;5.582;2023-04-07T10:13:33;101441.28;;;9.70;100.00
12987;BME280;58897;51.960;5.582;2023-04-07T10:16:05;101447.69;;;9.69;100.00
12987;BME280;58897;51.960;5.582;2023-04-07T10:18:34;101448.28;;;9.72;100.00
12987;BME280;58897;51.960;5.582;2023-04-07T10:21:02;101452.94;;;9.80;100.00
12987;BME280;58897;51.960;5.582;2023-04-07T10:26:34;101453.34;;;9.75;100.00
12987;BME280;58897;51.960;5.582;2023-04-07T10:29:06;101459.75;;;9.55;100.00
12987;BME280;58897;51.960;5.582;2023-04-07T10:31:36;101459.34;;;9.50;100.00
12987;BME280;58897;51.960;5.582;2023-04-07T10:34:03;101456.91;;;9.47;100.00
12987;BME280;58897;51.960;5.582;2023-04-07T10:36:31;101459.47;;;9.49;100.00
12987;BME280;58897;51.960;5.582;2023-04-07T10:41:40;101461.16;;;9.50;100.00
12987;BME280;58897;51.960;5.582;2023-04-07T10:44:08;101474.09;;;9.65;100.00
12987;BME280;58897;51.960;5.582;2023-04-07T10:49:15;101474.50;;;9.70;100.00
12987;BME280;58897;51.960;5.582;2023-04-07T10:54:37;101478.94;;;9.90;100.00
12987;BME280;58897;51.960;5.582;2023-04-07T10:57:07;101458.91;;;9.93;100.00
12987;BME280;58897;51.960;5.582;2023-04-07T10:59:37;101468.41;;;9.97;100.00
12987;BME280;58897;51.960;5.582;2023-04-07T11:04:44;101469.78;;;10.11;100.00
12987;BME280;58897;51.960;5.582;2023-04-07T11:07:13;101470.38;;;10.24;100.00
12987;BME280;58897;51.960;5.582;2023-04-07T11:09:40;101471.94;;;10.26;100.00
12987;BME280;58897;51.960;5.582;2023-04-07T11:12:21;101472.59;;;10.38;100.00
12987;BME280;58897;51.960;5.582;2023-04-07T11:14:47;101471.72;;;10.47;100.00
12987;BME280;58897;51.960;5.582;2023-04-07T11:17:14;101473.22;;;10.59;100.00
12987;BME280;58897;51.960;5.582;2023-04-07T11:19:52;101472.81;;;10.54;100.00
12987;BME280;58897;51.960;5.582;2023-04-07T11:22:21;101476.50;;;10.63;100.00
12987;BME280;58897;51.960;5.582;2023-04-07T11:24:55;101470.09;;;10.64;100.00
12987;BME280;58897;51.960;5.582;2023-04-07T11:27:22;101478.94;;;10.56;100.00
12987;BME280;58897;51.960;5.582;2023-04-07T11:29:49;101474.53;;;10.55;100.00
12987;BME280;58897;51.960;5.582;2023-04-07T11:32:21;101474.88;;;10.33;100.00
12987;BME280;58897;51.960;5.582;2023-04-07T11:34:51;101476.59;;;10.34;100.00
12987;BME280;58897;51.960;5.582;2023-04-07T11:37:23;101474.31;;;10.39;100.00
12987;BME280;58897;51.960;5.582;2023-04-07T11:39:56;101478.84;;;10.38;100.00
12987;BME280;58897;51.960;5.582;2023-04-07T11:42:38;101473.16;;;10.41;100.00
12987;BME280;58897;51.960;5.582;2023-04-07T11:45:15;101475.63;;;10.06;100.00
12987;BME280;58897;51.960;5.582;2023-04-07T11:47:42;101482.72;;;10.26;100.00
12987;BME280;58897;51.960;5.582;2023-04-07T11:50:11;101484.97;;;10.31;100.00
12987;BME280;58897;51.960;5.582;2023-04-07T11:52:44;101484.41;;;10.27;100.00
12987;BME280;58897;51.960;5.582;2023-04-07T11:55:22;101485.69;;;10.33;100.00
12987;BME280;58897;51.960;5.582;2023-04-07T11:57:50;101488.25;;;10.34;100.00
12987;BME280;58897;51.960;5.582;2023-04-07T12:00:18;101493.22;;;10.39;100.00
12987;BME280;58897;51.960;5.582;2023-04-07T12:02:45;101508.28;;;10.41;100.00
12987;BME280;58897;51.960;5.582;2023-04-07T12:05:12;101501.41;;;10.57;100.00
12987;BME280;58897;51.960;5.582;2023-04-07T12:07:39;101499.84;;;10.54;100.00
12987;BME280;58897;51.960;5.582;2023-04-07T12:10:20;101504.13;;;10.47;100.00
12987;BME280;58897;51.960;5.582;2023-04-07T12:12:49;101502.28;;;10.38;100.00
12987;BME280;58897;51.960;5.582;2023-04-07T12:15:16;101508.84;;;10.45;100.00
12987;BME280;58897;51.960;5.582;2023-04-07T12:17:49;101511.41;;;10.27;100.00
12987;BME280;58897;51.960;5.582;2023-04-07T12:20:21;101517.53;;;10.29;100.00
12987;BME280;58897;51.960;5.582;2023-04-07T12:22:50;101520.66;;;10.34;100.00
12987;BME280;58897;51.960;5.582;2023-04-07T12:25:18;101517.81;;;10.36;100.00
12987;BME280;58897;51.960;5.582;2023-04-07T12:27:45;101520.34;;;10.47;100.00
12987;BME280;58897;51.960;5.582;2023-04-07T12:30:12;101517.94;;;10.44;100.00
12987;BME280;58897;51.960;5.582;2023-04-07T12:32:39;101525.00;;;10.54;100.00
12987;BME280;58897;51.960;5.582;2023-04-07T12:35:06;101526.00;;;10.53;100.00
12987;BME280;58897;51.960;5.582;2023-04-07T12:37:35;101524.84;;;10.56;100.00
12987;BME280;58897;51.960;5.582;2023-04-07T12:40:02;101522.03;;;10.58;100.00
12987;BME280;58897;51.960;5.582;2023-04-07T12:42:29;101525.13;;;10.63;100.00
12987;BME280;58897;51.960;5.582;2023-04-07T12:44:56;101525.53;;;10.68;100.00
12987;BME280;58897;51.960;5.582;2023-04-07T12:47:23;101533.06;;;10.74;100.00
12987;BME280;58897;51.960;5.582;2023-04-07T12:49:50;101535.78;;;10.74;100.00
12987;BME280;58897;51.960;5.582;2023-04-07T12:52:16;101531.94;;;10.67;100.00
12987;BME280;58897;51.960;5.582;2023-04-07T12:54:43;101531.94;;;10.67;100.00
12987;BME280;58897;51.960;5.582;2023-04-07T12:57:10;101542.19;;;10.63;100.00
12987;BME280;58897;51.960;5.582;2023-04-07T12:59:37;101539.94;;;10.49;100.00
12987;BME280;58897;51.960;5.582;2023-04-07T13:02:04;101549.06;;;10.38;100.00
12987;BME280;58897;51.960;5.582;2023-04-07T13:04:32;101551.09;;;10.27;100.00
12987;BME280;58897;51.960;5.582;2023-04-07T13:07:01;101550.91;;;10.38;100.00
12987;BME280;58897;51.960;5.582;2023-04-07T13:09:41;101551.91;;;10.46;100.00
12987;BME280;58897;51.960;5.582;2023-04-07T13:15:38;101552.31;;;10.51;100.00
12987;BME280;58897;51.960;5.582;2023-04-07T13:18:05;101548.34;;;10.46;100.00
12987;BME280;58897;51.960;5.582;2023-04-07T13:20:32;101554.34;;;10.40;100.00
12987;BME280;58897;51.960;5.582;2023-04-07T13:22:59;101552.88;;;10.45;100.00